ADDS METAR Data INFO
IDs: Format: Raw Decoded Include TAF

Data at: 2222 UTC 24 Jun 2018

KFAR 242153Z 10013G22KT 10SM FEW041 FEW085 26/16 A2989 RMK AO2 LTG DSNT S SLP120 T02560161
KFAR 242053Z AUTO 12013G26KT 10SM FEW039 FEW110 27/16 A2990 RMK AO2 PK WND 12028/2004 SLP122 T02720161 58001
KFAR 241953Z 12012G28KT 10SM FEW060 SCT110 27/16 A2991 RMK AO2 PK WND 13029/1908 SLP124 T02670161
KFAR 241910Z 12016G29KT 10SM CLR 26/15 A2991 RMK AO2 PK WND 13029/1908 T02610150
KFAR 241853Z 12014G23KT 10SM VCTS CLR 26/16 A2991 RMK AO2 PK WND 14029/1815 SLP125 T02560161
KFAR 241844Z 14016G26KT 10SM VCTS CLR 25/16 A2991 RMK AO2 PK WND 14029/1815 T02500161
KFAR 241753Z 13013G23KT 10SM SCT039 26/17 A2990 RMK AO2 PK WND 15027/1712 SLP122 T02610167 10278 20194 53012
KFAR 241653Z 12013G24KT 10SM SCT041 27/16 A2988 RMK AO2 SLP115 T02670161
KFAR 241553Z 09015G21KT 10SM FEW090 27/17 A2987 RMK AO2 LTG DSNT SW SLP111 T02670172
KFAR 241453Z 12012KT 10SM CLR 26/18 A2986 RMK AO2 SLP109 T02560178 53017
KFAR 241353Z 09008KT 10SM CLR 24/18 A2984 RMK AO2 SLP101 T02390183
KFAR 241253Z 05007KT 10SM CLR 21/18 A2983 RMK AO2 SLP096 T02110183
KFAR 241153Z 10005KT 10SM CLR 19/18 A2981 RMK AO2 SLP091 70002 T01940178 10194 20178 51009
KFAR 241053Z AUTO 09006KT 10SM CLR 18/17 A2980 RMK AO2 SLP090 T01780172
KFAR 240953Z AUTO 08004KT 10SM SCT065 SCT110 18/17 A2980 RMK AO2 SLP086 T01830172
KFAR 240853Z AUTO 07004KT 10SM CLR 18/17 A2978 RMK AO2 SLP082 T01830167 53009
KFAR 240753Z AUTO 04005KT 10SM CLR 18/16 A2977 RMK AO2 SLP078 T01830161
KFAR 240653Z AUTO 07006KT 10SM CLR 19/17 A2976 RMK AO2 SLP073 T01890167
KFAR 240553Z AUTO 04005KT 10SM FEW110 19/17 A2976 RMK AO2 RAE30 SLP073 P0002 60002 T01890172 10278 20189 402890178 50004
KFAR 240453Z 09003KT 10SM -RA OVC100 20/17 A2977 RMK AO2 RAB10 SLP077 P0000 T02000167
KFAR 240353Z 07008KT 10SM SCT060 BKN110 20/16 A2977 RMK AO2 SLP078 T02000161
KFAR 240253Z 06016G24KT 10SM SCT060 BKN085 OVC110 21/16 A2975 RMK AO2 PK WND 07028/0229 LTG DSNT NE SLP070 T02110161 53021
KFAR 240236Z 07018G28KT 10SM VCTS BKN060 OVC080 22/16 A2974 RMK AO2 PK WND 07028/0229 LTG DSNT NE T02170161
KFAR 240153Z 10004KT 10SM FEW065 BKN095 BKN120 26/14 A2971 RMK AO2 LTG DSNT NE SLP058 T02560139
KFAR 240053Z 13008KT 10SM CLR 27/13 A2970 RMK AO2 SLP052 T02720133
KFAR 232353Z 15006KT 10SM CLR 28/14 A2968 RMK AO2 SLP048 T02780139 10289 20267 50001
KFAR 232253Z 13007KT 10SM FEW055 FEW070 BKN095 27/14 A2969 RMK AO2 SLP049 T02720144
KFAR 232153Z 14009KT 10SM BKN060 27/16 A2968 RMK AO2 SLP047 T02720156
KFAR 232053Z 17008KT 10SM FEW055 28/14 A2968 RMK AO2 SLP046 T02830144 58012
KFAR 231953Z 16009KT 10SM CLR 28/14 A2970 RMK AO2 SLP053 T02830139
KFAR 231853Z 16009KT 10SM CLR 28/14 A2971 RMK AO2 SLP057 T02830139
KFAR 231753Z 16009G18KT 10SM CLR 27/14 A2972 RMK AO2 SLP058 T02720139 10283 20189 58003
KFAR 231653Z 20008KT 10SM CLR 27/16 A2972 RMK AO2 SLP059 T02670161
KFAR 231553Z 19007KT 10SM SCT065 25/16 A2972 RMK AO2 SLP061 T02500161
KFAR 231453Z 18007KT 10SM FEW070 FEW085 23/17 A2972 RMK AO2 SLP061 T02280167 53003
KFAR 231353Z 18007KT 10SM SCT065 22/17 A2972 RMK AO2 SLP058 T02170167
KFAR 231253Z 20009KT 10SM CLR 21/16 A2972 RMK AO2 SLP058 T02060161
KFAR 231153Z 17006KT 10SM BKN060 19/16 A2971 RMK AO2 SLP059 T01890161 10206 20178 53002
KFAR 231053Z 17005KT 10SM CLR 18/16 A2971 RMK AO2 SLP057 T01780161